sensor_id;sensor_type;location;lat;lon;timestamp;temperature;humidity
37984;DHT22;64625;50.882;4.376;2023-04-07T00:00:53;9.70;99.90
37984;DHT22;64625;50.882;4.376;2023-04-07T00:03:19;9.70;99.90
37984;DHT22;64625;50.882;4.376;2023-04-07T00:05:46;9.70;99.90
37984;DHT22;64625;50.882;4.376;2023-04-07T00:08:12;9.70;99.90
37984;DHT22;64625;50.882;4.376;2023-04-07T00:10:38;9.80;99.90
37984;DHT22;64625;50.882;4.376;2023-04-07T00:13:03;9.70;99.90
37984;DHT22;64625;50.882;4.376;2023-04-07T00:15:29;9.70;99.90
37984;DHT22;64625;50.882;4.376;2023-04-07T00:17:55;9.80;99.90
37984;DHT22;64625;50.882;4.376;2023-04-07T00:20:21;9.70;99.90
37984;DHT22;64625;50.882;4.376;2023-04-07T00:22:47;9.70;99.90
37984;DHT22;64625;50.882;4.376;2023-04-07T00:25:13;9.70;99.90
37984;DHT22;64625;50.882;4.376;2023-04-07T00:27:39;9.70;99.90
37984;DHT22;64625;50.882;4.376;2023-04-07T00:30:06;9.70;99.90
37984;DHT22;64625;50.882;4.376;2023-04-07T00:32:32;9.70;99.90
37984;DHT22;64625;50.882;4.376;2023-04-07T00:34:58;9.80;99.90
37984;DHT22;64625;50.882;4.376;2023-04-07T00:37:23;9.70;99.90
37984;DHT22;64625;50.882;4.376;2023-04-07T00:40:09;9.70;99.90
37984;DHT22;64625;50.882;4.376;2023-04-07T00:42:35;9.70;99.90
37984;DHT22;64625;50.882;4.376;2023-04-07T00:45:01;9.70;99.90
37984;DHT22;64625;50.882;4.376;2023-04-07T00:47:27;9.70;99.90
37984;DHT22;64625;50.882;4.376;2023-04-07T00:49:52;9.70;99.90
37984;DHT22;64625;50.882;4.376;2023-04-07T00:52:19;9.70;99.90
37984;DHT22;64625;50.882;4.376;2023-04-07T00:54:56;9.70;99.90
37984;DHT22;64625;50.882;4.376;2023-04-07T00:57:22;9.70;99.90
37984;DHT22;64625;50.882;4.376;2023-04-07T00:59:57;9.70;99.90
37984;DHT22;64625;50.882;4.376;2023-04-07T01:02:40;9.70;99.90
37984;DHT22;64625;50.882;4.376;2023-04-07T01:05:15;9.70;99.90
37984;DHT22;64625;50.882;4.376;2023-04-07T01:10:11;9.70;99.90
37984;DHT22;64625;50.882;4.376;2023-04-07T01:12:55;9.70;99.90
37984;DHT22;64625;50.882;4.376;2023-04-07T01:15:22;9.70;99.90
37984;DHT22;64625;50.882;4.376;2023-04-07T01:17:54;9.70;99.90
37984;DHT22;64625;50.882;4.376;2023-04-07T01:20:22;9.70;99.90
37984;DHT22;64625;50.882;4.376;2023-04-07T01:22:54;9.70;99.90
37984;DHT22;64625;50.882;4.376;2023-04-07T01:30:32;9.80;99.90
37984;DHT22;64625;50.882;4.376;2023-04-07T01:33:00;9.80;99.90
37984;DHT22;64625;50.882;4.376;2023-04-07T01:35:32;9.80;99.90
37984;DHT22;64625;50.882;4.376;2023-04-07T01:37:59;9.80;99.90
37984;DHT22;64625;50.882;4.376;2023-04-07T01:40:27;9.80;99.90
37984;DHT22;64625;50.882;4.376;2023-04-07T01:42:55;9.80;99.90
37984;DHT22;64625;50.882;4.376;2023-04-07T01:45:21;9.70;99.90
37984;DHT22;64625;50.882;4.376;2023-04-07T01:47:48;9.70;99.90
37984;DHT22;64625;50.882;4.376;2023-04-07T01:50:15;9.70;99.90
37984;DHT22;64625;50.882;4.376;2023-04-07T01:52:46;9.70;99.90
37984;DHT22;64625;50.882;4.376;2023-04-07T01:55:11;9.70;99.90
37984;DHT22;64625;50.882;4.376;2023-04-07T01:57:37;9.70;99.90
37984;DHT22;64625;50.882;4.376;2023-04-07T02:00:04;9.70;99.90
37984;DHT22;64625;50.882;4.376;2023-04-07T02:02:34;9.70;99.90
37984;DHT22;64625;50.882;4.376;2023-04-07T02:05:04;9.70;99.90
37984;DHT22;64625;50.882;4.376;2023-04-07T02:07:45;9.70;99.90
37984;DHT22;64625;50.882;4.376;2023-04-07T02:10:15;9.70;99.90
37984;DHT22;64625;50.882;4.376;2023-04-07T02:12:43;9.70;99.90
37984;DHT22;64625;50.882;4.376;2023-04-07T02:15:11;9.70;99.90
37984;DHT22;64625;50.882;4.376;2023-04-07T02:17:42;9.70;99.90
37984;DHT22;64625;50.882;4.376;2023-04-07T02:20:10;9.70;99.90
37984;DHT22;64625;50.882;4.376;2023-04-07T02:22:38;9.60;99.90
37984;DHT22;64625;50.882;4.376;2023-04-07T02:25:25;9.60;99.90
37984;DHT22;64625;50.882;4.376;2023-04-07T02:27:52;9.60;99.90
37984;DHT22;64625;50.882;4.376;2023-04-07T02:30:18;9.60;99.90
37984;DHT22;64625;50.882;4.376;2023-04-07T02:32:45;9.60;99.90
37984;DHT22;64625;50.882;4.376;2023-04-07T02:35:11;9.60;99.90
37984;DHT22;64625;50.882;4.376;2023-04-07T02:37:38;9.60;99.90
37984;DHT22;64625;50.882;4.376;2023-04-07T02:40:05;9.60;99.90
37984;DHT22;64625;50.882;4.376;2023-04-07T02:42:31;9.60;99.90
37984;DHT22;64625;50.882;4.376;2023-04-07T02:44:57;9.60;99.90
37984;DHT22;64625;50.882;4.376;2023-04-07T02:47:23;9.60;99.90
37984;DHT22;64625;50.882;4.376;2023-04-07T02:49:52;9.50;99.90
37984;DHT22;64625;50.882;4.376;2023-04-07T02:52:18;9.50;99.90
37984;DHT22;64625;50.882;4.376;2023-04-07T02:54:44;9.50;99.90
37984;DHT22;64625;50.882;4.376;2023-04-07T02:57:10;9.50;99.90
37984;DHT22;64625;50.882;4.376;2023-04-07T02:59:35;9.50;99.90
37984;DHT22;64625;50.882;4.376;2023-04-07T03:02:01;9.50;99.90
37984;DHT22;64625;50.882;4.376;2023-04-07T03:04:27;9.50;99.90
37984;DHT22;64625;50.882;4.376;2023-04-07T03:06:52;9.40;99.90
37984;DHT22;64625;50.882;4.376;2023-04-07T03:09:19;9.40;99.90
37984;DHT22;64625;50.882;4.376;2023-04-07T03:11:44;9.50;99.90
37984;DHT22;64625;50.882;4.376;2023-04-07T03:14:11;9.40;99.90
37984;DHT22;64625;50.882;4.376;2023-04-07T03:16:36;9.40;99.90
37984;DHT22;64625;50.882;4.376;2023-04-07T03:19:02;9.40;99.90
37984;DHT22;64625;50.882;4.376;2023-04-07T03:21:28;9.50;99.90
37984;DHT22;64625;50.882;4.376;2023-04-07T03:23:56;9.40;99.90
37984;DHT22;64625;50.882;4.376;2023-04-07T03:26:22;9.40;99.90
37984;DHT22;64625;50.882;4.376;2023-04-07T03:28:48;9.40;99.90
37984;DHT22;64625;50.882;4.376;2023-04-07T03:31:13;9.40;99.90
37984;DHT22;64625;50.882;4.376;2023-04-07T03:33:39;9.40;99.90
37984;DHT22;64625;50.882;4.376;2023-04-07T03:36:06;9.40;99.90
37984;DHT22;64625;50.882;4.376;2023-04-07T03:38:32;9.30;99.90
37984;DHT22;64625;50.882;4.376;2023-04-07T03:40:58;9.30;99.90
37984;DHT22;64625;50.882;4.376;2023-04-07T03:43:24;9.30;99.90
37984;DHT22;64625;50.882;4.376;2023-04-07T03:45:52;9.30;99.90
37984;DHT22;64625;50.882;4.376;2023-04-07T03:48:18;9.30;99.90
37984;DHT22;64625;50.882;4.376;2023-04-07T03:50:45;9.30;99.90
37984;DHT22;64625;50.882;4.376;2023-04-07T03:53:11;9.30;99.90
37984;DHT22;64625;50.882;4.376;2023-04-07T03:55:40;9.20;99.90
37984;DHT22;64625;50.882;4.376;2023-04-07T03:58:06;9.20;99.90
37984;DHT22;64625;50.882;4.376;2023-04-07T04:00:32;9.20;99.90
37984;DHT22;64625;50.882;4.376;2023-04-07T04:02:58;9.20;99.90
37984;DHT22;64625;50.882;4.376;2023-04-07T04:05:24;9.10;99.90
37984;DHT22;64625;50.882;4.376;2023-04-07T04:07:50;9.10;99.90
37984;DHT22;64625;50.882;4.376;2023-04-07T04:10:18;9.10;99.90
37984;DHT22;64625;50.882;4.376;2023-04-07T04:12:48;9.10;99.90
37984;DHT22;64625;50.882;4.376;2023-04-07T04:15:14;9.10;99.90
37984;DHT22;64625;50.882;4.376;2023-04-07T04:17:40;9.10;99.90
37984;DHT22;64625;50.882;4.376;2023-04-07T04:20:07;9.10;99.90
37984;DHT22;64625;50.882;4.376;2023-04-07T04:22:33;9.10;99.90
37984;DHT22;64625;50.882;4.376;2023-04-07T04:24:59;9.10;99.90
37984;DHT22;64625;50.882;4.376;2023-04-07T04:27:25;9.00;99.90
37984;DHT22;64625;50.882;4.376;2023-04-07T04:29:51;9.00;99.90
37984;DHT22;64625;50.882;4.376;2023-04-07T04:32:16;9.00;99.90
37984;DHT22;64625;50.882;4.376;2023-04-07T04:34:42;9.00;99.90
37984;DHT22;64625;50.882;4.376;2023-04-07T04:37:08;9.00;99.90
37984;DHT22;64625;50.882;4.376;2023-04-07T04:39:37;9.00;99.90
37984;DHT22;64625;50.882;4.376;2023-04-07T04:42:03;9.00;99.90
37984;DHT22;64625;50.882;4.376;2023-04-07T04:44:32;9.00;99.90
37984;DHT22;64625;50.882;4.376;2023-04-07T04:46:58;9.00;99.90
37984;DHT22;64625;50.882;4.376;2023-04-07T04:49:23;9.00;99.90
37984;DHT22;64625;50.882;4.376;2023-04-07T04:51:49;9.00;99.90
37984;DHT22;64625;50.882;4.376;2023-04-07T04:54:15;9.00;99.90
37984;DHT22;64625;50.882;4.376;2023-04-07T04:56:41;9.00;99.90
37984;DHT22;64625;50.882;4.376;2023-04-07T04:59:08;9.00;99.90
37984;DHT22;64625;50.882;4.376;2023-04-07T05:01:34;8.90;99.90
37984;DHT22;64625;50.882;4.376;2023-04-07T05:03:59;8.90;99.90
37984;DHT22;64625;50.882;4.376;2023-04-07T05:06:25;8.90;99.90
37984;DHT22;64625;50.882;4.376;2023-04-07T05:08:52;8.90;99.90
37984;DHT22;64625;50.882;4.376;2023-04-07T05:11:18;8.90;99.90
37984;DHT22;64625;50.882;4.376;2023-04-07T05:13:44;8.90;99.90
37984;DHT22;64625;50.882;4.376;2023-04-07T05:16:10;8.90;99.90
37984;DHT22;64625;50.882;4.376;2023-04-07T05:18:36;8.80;99.90
37984;DHT22;64625;50.882;4.376;2023-04-07T05:21:01;8.80;99.90
37984;DHT22;64625;50.882;4.376;2023-04-07T05:23:27;8.80;99.90
37984;DHT22;64625;50.882;4.376;2023-04-07T05:25:53;8.80;99.90
37984;DHT22;64625;50.882;4.376;2023-04-07T05:28:19;8.80;99.90
37984;DHT22;64625;50.882;4.376;2023-04-07T05:30:46;8.80;99.90
37984;DHT22;64625;50.882;4.376;2023-04-07T05:33:12;8.70;99.90
37984;DHT22;64625;50.882;4.376;2023-04-07T05:35:38;8.70;99.90
37984;DHT22;64625;50.882;4.376;2023-04-07T05:38:04;8.70;99.90
37984;DHT22;64625;50.882;4.376;2023-04-07T05:40:30;8.70;99.90
37984;DHT22;64625;50.882;4.376;2023-04-07T05:42:56;8.70;99.90
37984;DHT22;64625;50.882;4.376;2023-04-07T05:45:22;8.60;99.90
37984;DHT22;64625;50.882;4.376;2023-04-07T05:47:48;8.60;99.90
37984;DHT22;64625;50.882;4.376;2023-04-07T05:50:16;8.60;99.90
37984;DHT22;64625;50.882;4.376;2023-04-07T05:52:42;8.60;99.90
37984;DHT22;64625;50.882;4.376;2023-04-07T05:55:08;8.60;99.90
37984;DHT22;64625;50.882;4.376;2023-04-07T05:57:34;8.60;99.90
37984;DHT22;64625;50.882;4.376;2023-04-07T06:00:00;8.60;99.90
37984;DHT22;64625;50.882;4.376;2023-04-07T06:02:26;8.60;99.90
37984;DHT22;64625;50.882;4.376;2023-04-07T06:04:51;8.60;99.90
37984;DHT22;64625;50.882;4.376;2023-04-07T06:07:17;8.60;99.90
37984;DHT22;64625;50.882;4.376;2023-04-07T06:09:43;8.60;99.90
37984;DHT22;64625;50.882;4.376;2023-04-07T06:12:09;8.60;99.90
37984;DHT22;64625;50.882;4.376;2023-04-07T06:14:37;8.60;99.90
37984;DHT22;64625;50.882;4.376;2023-04-07T06:17:03;8.60;99.90
37984;DHT22;64625;50.882;4.376;2023-04-07T06:19:29;8.60;99.90
37984;DHT22;64625;50.882;4.376;2023-04-07T06:21:55;8.60;99.90
37984;DHT22;64625;50.882;4.376;2023-04-07T06:24:21;8.60;99.90
37984;DHT22;64625;50.882;4.376;2023-04-07T06:26:51;8.60;99.90
37984;DHT22;64625;50.882;4.376;2023-04-07T06:29:17;8.60;99.90
37984;DHT22;64625;50.882;4.376;2023-04-07T06:31:43;8.60;99.90
37984;DHT22;64625;50.882;4.376;2023-04-07T06:34:08;8.60;99.90
37984;DHT22;64625;50.882;4.376;2023-04-07T06:36:34;8.70;99.90
37984;DHT22;64625;50.882;4.376;2023-04-07T06:39:00;8.70;99.90
37984;DHT22;64625;50.882;4.376;2023-04-07T06:41:26;8.70;99.90
37984;DHT22;64625;50.882;4.376;2023-04-07T06:43:52;8.70;99.90
37984;DHT22;64625;50.882;4.376;2023-04-07T06:46:21;8.70;99.90
37984;DHT22;64625;50.882;4.376;2023-04-07T06:48:47;8.70;99.90
37984;DHT22;64625;50.882;4.376;2023-04-07T06:51:13;8.70;99.90
37984;DHT22;64625;50.882;4.376;2023-04-07T06:53:39;8.70;99.90
37984;DHT22;64625;50.882;4.376;2023-04-07T06:56:08;8.80;99.90
37984;DHT22;64625;50.882;4.376;2023-04-07T06:58:35;8.80;99.90
37984;DHT22;64625;50.882;4.376;2023-04-07T07:01:02;8.80;99.90
37984;DHT22;64625;50.882;4.376;2023-04-07T07:03:29;8.90;99.90
37984;DHT22;64625;50.882;4.376;2023-04-07T07:05:57;8.90;99.90
37984;DHT22;64625;50.882;4.376;2023-04-07T07:08:23;8.90;99.90
37984;DHT22;64625;50.882;4.376;2023-04-07T07:10:49;9.00;99.90
37984;DHT22;64625;50.882;4.376;2023-04-07T07:13:15;9.00;99.90
37984;DHT22;64625;50.882;4.376;2023-04-07T07:15:41;9.00;99.90
37984;DHT22;64625;50.882;4.376;2023-04-07T07:18:07;9.00;99.90
37984;DHT22;64625;50.882;4.376;2023-04-07T07:20:32;9.10;99.90
37984;DHT22;64625;50.882;4.376;2023-04-07T07:22:59;9.10;99.90
37984;DHT22;64625;50.882;4.376;2023-04-07T07:25:25;9.10;99.90
37984;DHT22;64625;50.882;4.376;2023-04-07T07:27:53;9.20;99.90
37984;DHT22;64625;50.882;4.376;2023-04-07T07:30:21;9.20;99.90
37984;DHT22;64625;50.882;4.376;2023-04-07T07:32:47;9.30;99.90
37984;DHT22;64625;50.882;4.376;2023-04-07T07:35:13;9.30;99.90
37984;DHT22;64625;50.882;4.376;2023-04-07T07:37:39;9.30;99.90
37984;DHT22;64625;50.882;4.376;2023-04-07T07:40:05;9.40;99.90
37984;DHT22;64625;50.882;4.376;2023-04-07T07:42:31;9.40;99.90
37984;DHT22;64625;50.882;4.376;2023-04-07T07:44:58;9.50;99.90
37984;DHT22;64625;50.882;4.376;2023-04-07T07:47:24;9.50;99.90
37984;DHT22;64625;50.882;4.376;2023-04-07T07:49:50;9.60;99.90
37984;DHT22;64625;50.882;4.376;2023-04-07T07:52:17;9.60;99.90
37984;DHT22;64625;50.882;4.376;2023-04-07T07:54:44;9.60;99.90
37984;DHT22;64625;50.882;4.376;2023-04-07T07:57:09;9.60;99.90
37984;DHT22;64625;50.882;4.376;2023-04-07T07:59:35;9.70;99.90
37984;DHT22;64625;50.882;4.376;2023-04-07T08:02:06;9.70;99.90
37984;DHT22;64625;50.882;4.376;2023-04-07T08:04:31;9.70;99.90
37984;DHT22;64625;50.882;4.376;2023-04-07T08:06:57;9.70;99.90
37984;DHT22;64625;50.882;4.376;2023-04-07T08:09:23;9.80;99.90
37984;DHT22;64625;50.882;4.376;2023-04-07T08:11:49;9.80;99.90
37984;DHT22;64625;50.882;4.376;2023-04-07T08:14:17;9.90;99.90
37984;DHT22;64625;50.882;4.376;2023-04-07T08:16:43;9.90;99.90
37984;DHT22;64625;50.882;4.376;2023-04-07T08:19:09;9.90;99.90
37984;DHT22;64625;50.882;4.376;2023-04-07T08:21:35;9.90;99.90
37984;DHT22;64625;50.882;4.376;2023-04-07T08:24:01;9.90;99.90
37984;DHT22;64625;50.882;4.376;2023-04-07T08:26:27;9.90;99.90
37984;DHT22;64625;50.882;4.376;2023-04-07T08:28:53;9.90;99.90
37984;DHT22;64625;50.882;4.376;2023-04-07T08:31:20;9.90;99.90
37984;DHT22;64625;50.882;4.376;2023-04-07T08:33:46;10.00;99.90
37984;DHT22;64625;50.882;4.376;2023-04-07T08:36:12;10.00;99.90
37984;DHT22;64625;50.882;4.376;2023-04-07T08:38:38;10.00;99.90
37984;DHT22;64625;50.882;4.376;2023-04-07T08:41:09;10.00;99.90
37984;DHT22;64625;50.882;4.376;2023-04-07T08:43:35;10.00;99.90
37984;DHT22;64625;50.882;4.376;2023-04-07T08:46:02;10.10;99.90
37984;DHT22;64625;50.882;4.376;2023-04-07T08:48:30;10.00;99.90
37984;DHT22;64625;50.882;4.376;2023-04-07T08:51:04;10.10;99.90
37984;DHT22;64625;50.882;4.376;2023-04-07T08:53:42;10.10;99.90
37984;DHT22;64625;50.882;4.376;2023-04-07T08:56:11;10.20;99.90
37984;DHT22;64625;50.882;4.376;2023-04-07T08:58:37;10.20;99.90
37984;DHT22;64625;50.882;4.376;2023-04-07T09:01:05;10.30;99.90
37984;DHT22;64625;50.882;4.376;2023-04-07T09:03:34;10.30;99.90
37984;DHT22;64625;50.882;4.376;2023-04-07T09:06:03;10.40;99.90
37984;DHT22;64625;50.882;4.376;2023-04-07T09:08:29;10.40;99.90
37984;DHT22;64625;50.882;4.376;2023-04-07T09:10:58;10.50;99.90
37984;DHT22;64625;50.882;4.376;2023-04-07T09:13:24;10.50;99.90
37984;DHT22;64625;50.882;4.376;2023-04-07T09:15:50;10.60;99.90
37984;DHT22;64625;50.882;4.376;2023-04-07T09:18:16;10.70;99.90
37984;DHT22;64625;50.882;4.376;2023-04-07T09:21:02;10.70;99.90
37984;DHT22;64625;50.882;4.376;2023-04-07T09:23:29;10.90;99.90
37984;DHT22;64625;50.882;4.376;2023-04-07T09:25:56;10.90;99.90
37984;DHT22;64625;50.882;4.376;2023-04-07T09:28:24;11.00;99.90
37984;DHT22;64625;50.882;4.376;2023-04-07T09:30:54;11.10;99.90
37984;DHT22;64625;50.882;4.376;2023-04-07T09:33:27;11.20;99.90
37984;DHT22;64625;50.882;4.376;2023-04-07T09:35:53;11.30;99.90
37984;DHT22;64625;50.882;4.376;2023-04-07T09:38:19;11.30;99.90
37984;DHT22;64625;50.882;4.376;2023-04-07T09:40:45;11.40;99.90
37984;DHT22;64625;50.882;4.376;2023-04-07T09:43:18;11.40;99.90
37984;DHT22;64625;50.882;4.376;2023-04-07T09:45:44;11.40;99.90
37984;DHT22;64625;50.882;4.376;2023-04-07T09:48:20;11.50;99.90
37984;DHT22;64625;50.882;4.376;2023-04-07T09:50:46;11.50;99.90
37984;DHT22;64625;50.882;4.376;2023-04-07T09:53:16;11.50;99.90
37984;DHT22;64625;50.882;4.376;2023-04-07T09:55:44;11.50;99.90
37984;DHT22;64625;50.882;4.376;2023-04-07T09:58:13;11.60;99.90
37984;DHT22;64625;50.882;4.376;2023-04-07T10:00:41;11.70;99.90
37984;DHT22;64625;50.882;4.376;2023-04-07T10:03:07;11.70;99.90
37984;DHT22;64625;50.882;4.376;2023-04-07T10:05:34;11.70;99.90
37984;DHT22;64625;50.882;4.376;2023-04-07T10:08:05;11.70;99.90
37984;DHT22;64625;50.882;4.376;2023-04-07T10:10:31;11.70;99.90
37984;DHT22;64625;50.882;4.376;2023-04-07T10:12:57;11.70;99.90
37984;DHT22;64625;50.882;4.376;2023-04-07T10:15:24;11.80;99.90
37984;DHT22;64625;50.882;4.376;2023-04-07T10:17:50;11.80;99.90
37984;DHT22;64625;50.882;4.376;2023-04-07T10:20:17;11.90;99.90
37984;DHT22;64625;50.882;4.376;2023-04-07T10:22:47;12.00;99.90
37984;DHT22;64625;50.882;4.376;2023-04-07T10:25:17;12.10;99.90
37984;DHT22;64625;50.882;4.376;2023-04-07T10:30:34;12.20;99.90
37984;DHT22;64625;50.882;4.376;2023-04-07T10:33:00;12.20;99.90
37984;DHT22;64625;50.882;4.376;2023-04-07T10:35:27;12.20;99.90
37984;DHT22;64625;50.882;4.376;2023-04-07T10:38:13;12.20;99.90
37984;DHT22;64625;50.882;4.376;2023-04-07T10:40:41;12.20;99.90
37984;DHT22;64625;50.882;4.376;2023-04-07T10:43:09;12.20;99.90
37984;DHT22;64625;50.882;4.376;2023-04-07T10:45:56;12.10;99.90
37984;DHT22;64625;50.882;4.376;2023-04-07T10:48:24;12.10;99.90
37984;DHT22;64625;50.882;4.376;2023-04-07T10:53:33;12.20;99.90
37984;DHT22;64625;50.882;4.376;2023-04-07T10:55:59;12.20;99.90
37984;DHT22;64625;50.882;4.376;2023-04-07T10:58:29;12.20;99.90
37984;DHT22;64625;50.882;4.376;2023-04-07T11:03:53;12.30;99.90
37984;DHT22;64625;50.882;4.376;2023-04-07T11:06:20;12.30;99.90
37984;DHT22;64625;50.882;4.376;2023-04-07T11:08:47;12.40;99.90
37984;DHT22;64625;50.882;4.376;2023-04-07T11:11:14;12.40;99.90
37984;DHT22;64625;50.882;4.376;2023-04-07T11:16:11;12.50;99.90
37984;DHT22;64625;50.882;4.376;2023-04-07T11:18:37;12.60;99.90
37984;DHT22;64625;50.882;4.376;2023-04-07T11:21:04;12.60;99.90
37984;DHT22;64625;50.882;4.376;2023-04-07T11:23:38;12.70;99.90
37984;DHT22;64625;50.882;4.376;2023-04-07T11:26:04;12.70;99.90
37984;DHT22;64625;50.882;4.376;2023-04-07T11:28:30;12.70;99.90
37984;DHT22;64625;50.882;4.376;2023-04-07T11:30:57;12.70;99.90
37984;DHT22;64625;50.882;4.376;2023-04-07T11:33:29;12.70;99.90
37984;DHT22;64625;50.882;4.376;2023-04-07T11:36:00;12.70;99.90
37984;DHT22;64625;50.882;4.376;2023-04-07T11:38:29;12.70;99.90
37984;DHT22;64625;50.882;4.376;2023-04-07T11:40:55;12.70;99.90
37984;DHT22;64625;50.882;4.376;2023-04-07T11:43:25;12.70;99.90
37984;DHT22;64625;50.882;4.376;2023-04-07T11:46:06;12.70;99.90
37984;DHT22;64625;50.882;4.376;2023-04-07T11:48:34;12.70;99.90
37984;DHT22;64625;50.882;4.376;2023-04-07T11:51:01;12.70;99.90
37984;DHT22;64625;50.882;4.376;2023-04-07T11:53:32;12.70;99.90
37984;DHT22;64625;50.882;4.376;2023-04-07T11:56:04;12.70;99.90
37984;DHT22;64625;50.882;4.376;2023-04-07T11:58:31;12.80;99.90
37984;DHT22;64625;50.882;4.376;2023-04-07T12:00:58;12.80;99.90
37984;DHT22;64625;50.882;4.376;2023-04-07T12:03:28;12.90;99.90
37984;DHT22;64625;50.882;4.376;2023-04-07T12:05:54;12.90;99.90
37984;DHT22;64625;50.882;4.376;2023-04-07T12:08:20;12.90;99.90
37984;DHT22;64625;50.882;4.376;2023-04-07T12:10:46;12.90;99.90
37984;DHT22;64625;50.882;4.376;2023-04-07T12:13:13;12.80;99.90
37984;DHT22;64625;50.882;4.376;2023-04-07T12:15:39;12.80;99.90
37984;DHT22;64625;50.882;4.376;2023-04-07T12:18:05;12.70;99.90
37984;DHT22;64625;50.882;4.376;2023-04-07T12:20:31;12.70;99.90
37984;DHT22;64625;50.882;4.376;2023-04-07T12:22:57;12.70;99.90
37984;DHT22;64625;50.882;4.376;2023-04-07T12:25:25;12.60;99.90
37984;DHT22;64625;50.882;4.376;2023-04-07T12:27:51;12.60;99.90
37984;DHT22;64625;50.882;4.376;2023-04-07T12:30:20;12.60;99.90
37984;DHT22;64625;50.882;4.376;2023-04-07T12:32:46;12.60;99.90
37984;DHT22;64625;50.882;4.376;2023-04-07T12:35:12;12.60;99.90
37984;DHT22;64625;50.882;4.376;2023-04-07T12:37:37;12.70;99.90
37984;DHT22;64625;50.882;4.376;2023-04-07T12:40:03;12.70;99.90
37984;DHT22;64625;50.882;4.376;2023-04-07T12:42:29;12.70;99.90
37984;DHT22;64625;50.882;4.376;2023-04-07T12:44:55;12.70;99.90
37984;DHT22;64625;50.882;4.376;2023-04-07T12:47:21;12.80;99.90
37984;DHT22;64625;50.882;4.376;2023-04-07T12:49:47;12.80;99.90
37984;DHT22;64625;50.882;4.376;2023-04-07T12:52:12;12.80;99.90
37984;DHT22;64625;50.882;4.376;2023-04-07T12:54:38;12.80;99.90
37984;DHT22;64625;50.882;4.376;2023-04-07T12:57:04;12.80;99.90
37984;DHT22;64625;50.882;4.376;2023-04-07T12:59:31;12.70;99.90
37984;DHT22;64625;50.882;4.376;2023-04-07T13:01:57;12.70;99.90
37984;DHT22;64625;50.882;4.376;2023-04-07T13:04:24;12.60;99.90
37984;DHT22;64625;50.882;4.376;2023-04-07T13:06:51;12.60;99.90
37984;DHT22;64625;50.882;4.376;2023-04-07T13:09:17;12.50;99.90
37984;DHT22;64625;50.882;4.376;2023-04-07T13:11:42;12.50;99.90
37984;DHT22;64625;50.882;4.376;2023-04-07T13:14:08;12.40;99.90
37984;DHT22;64625;50.882;4.376;2023-04-07T13:16:34;12.50;99.90
37984;DHT22;64625;50.882;4.376;2023-04-07T13:19:00;12.40;99.90
37984;DHT22;64625;50.882;4.376;2023-04-07T13:21:26;12.40;99.90
37984;DHT22;64625;50.882;4.376;2023-04-07T13:23:53;12.40;99.90
37984;DHT22;64625;50.882;4.376;2023-04-07T13:26:19;12.40;99.90
37984;DHT22;64625;50.882;4.376;2023-04-07T13:28:45;12.40;99.90
37984;DHT22;64625;50.882;4.376;2023-04-07T13:31:12;12.40;99.90
37984;DHT22;64625;50.882;4.376;2023-04-07T13:33:40;12.30;99.90
37984;DHT22;64625;50.882;4.376;2023-04-07T13:36:06;12.30;99.90
37984;DHT22;64625;50.882;4.376;2023-04-07T13:38:32;12.30;99.90
37984;DHT22;64625;50.882;4.376;2023-04-07T13:40:58;12.40;99.90
37984;DHT22;64625;50.882;4.376;2023-04-07T13:43:24;12.40;99.90
37984;DHT22;64625;50.882;4.376;2023-04-07T13:45:49;12.40;99.90
37984;DHT22;64625;50.882;4.376;2023-04-07T13:48:16;12.40;99.90
37984;DHT22;64625;50.882;4.376;2023-04-07T13:50:42;12.40;99.90
37984;DHT22;64625;50.882;4.376;2023-04-07T13:53:07;12.50;99.90
37984;DHT22;64625;50.882;4.376;2023-04-07T13:55:33;12.50;99.90
37984;DHT22;64625;50.882;4.376;2023-04-07T13:57:59;12.50;99.90
37984;DHT22;64625;50.882;4.376;2023-04-07T14:00:25;12.50;99.90
37984;DHT22;64625;50.882;4.376;2023-04-07T14:02:50;12.60;99.90
37984;DHT22;64625;50.882;4.376;2023-04-07T14:05:17;12.60;99.90
37984;DHT22;64625;50.882;4.376;2023-04-07T14:07:43;12.60;99.90
37984;DHT22;64625;50.882;4.376;2023-04-07T14:10:08;12.60;99.90
37984;DHT22;64625;50.882;4.376;2023-04-07T14:12:35;12.60;99.90
37984;DHT22;64625;50.882;4.376;2023-04-07T14:15:01;12.60;99.90
37984;DHT22;64625;50.882;4.376;2023-04-07T14:17:28;12.60;99.90
37984;DHT22;64625;50.882;4.376;2023-04-07T14:19:55;12.60;99.90
37984;DHT22;64625;50.882;4.376;2023-04-07T14:22:21;12.60;99.90
37984;DHT22;64625;50.882;4.376;2023-04-07T14:24:47;12.60;99.90
37984;DHT22;64625;50.882;4.376;2023-04-07T14:27:13;12.60;99.90
37984;DHT22;64625;50.882;4.376;2023-04-07T14:29:46;12.60;99.90
37984;DHT22;64625;50.882;4.376;2023-04-07T14:32:12;12.60;99.90
37984;DHT22;64625;50.882;4.376;2023-04-07T14:34:38;12.60;99.90
37984;DHT22;64625;50.882;4.376;2023-04-07T14:37:04;12.60;99.90
37984;DHT22;64625;50.882;4.376;2023-04-07T14:39:30;12.60;99.90
37984;DHT22;64625;50.882;4.376;2023-04-07T14:41:56;12.50;99.90
37984;DHT22;64625;50.882;4.376;2023-04-07T14:44:22;12.50;99.90
37984;DHT22;64625;50.882;4.376;2023-04-07T14:46:48;12.50;99.90
37984;DHT22;64625;50.882;4.376;2023-04-07T14:49:14;12.50;99.90
37984;DHT22;64625;50.882;4.376;2023-04-07T14:51:40;12.40;99.90
37984;DHT22;64625;50.882;4.376;2023-04-07T14:54:06;12.40;99.90
37984;DHT22;64625;50.882;4.376;2023-04-07T14:56:32;12.40;99.90
37984;DHT22;64625;50.882;4.376;2023-04-07T14:58:58;12.50;99.90
37984;DHT22;64625;50.882;4.376;2023-04-07T15:01:24;12.50;99.90
37984;DHT22;64625;50.882;4.376;2023-04-07T15:03:50;12.60;99.90
37984;DHT22;64625;50.882;4.376;2023-04-07T15:06:17;12.60;99.90
37984;DHT22;64625;50.882;4.376;2023-04-07T15:08:43;12.60;99.90
37984;DHT22;64625;50.882;4.376;2023-04-07T15:11:10;12.60;99.90
37984;DHT22;64625;50.882;4.376;2023-04-07T15:13:36;12.70;99.90
37984;DHT22;64625;50.882;4.376;2023-04-07T15:16:08;12.70;99.90
37984;DHT22;64625;50.882;4.376;2023-04-07T15:18:36;12.70;99.90
37984;DHT22;64625;50.882;4.376;2023-04-07T15:21:01;12.70;99.90
37984;DHT22;64625;50.882;4.376;2023-04-07T15:23:27;12.80;99.90
37984;DHT22;64625;50.882;4.376;2023-04-07T15:25:53;12.80;99.90
37984;DHT22;64625;50.882;4.376;2023-04-07T15:28:22;12.80;99.90
37984;DHT22;64625;50.882;4.376;2023-04-07T15:30:48;12.70;99.90
37984;DHT22;64625;50.882;4.376;2023-04-07T15:33:14;12.70;99.90
37984;DHT22;64625;50.882;4.376;2023-04-07T15:35:41;12.70;99.90
37984;DHT22;64625;50.882;4.376;2023-04-07T15:38:07;12.70;99.90
37984;DHT22;64625;50.882;4.376;2023-04-07T15:40:37;12.70;99.90
37984;DHT22;64625;50.882;4.376;2023-04-07T15:43:03;12.70;99.90
37984;DHT22;64625;50.882;4.376;2023-04-07T15:45:34;12.70;99.90
37984;DHT22;64625;50.882;4.376;2023-04-07T15:48:01;12.80;99.90
37984;DHT22;64625;50.882;4.376;2023-04-07T15:50:26;12.80;99.90
37984;DHT22;64625;50.882;4.376;2023-04-07T15:52:54;12.80;99.90
37984;DHT22;64625;50.882;4.376;2023-04-07T15:55:20;12.80;99.90
37984;DHT22;64625;50.882;4.376;2023-04-07T15:57:46;12.90;99.90